Time;durP1;ratioP1;P1;durP2;ratioP2;P2;SDS_P1;SDS_P2;PMS_P1;PMS_P2;Temp;Humidity;BMP_temperature;BMP_pressure;BME280_temperature;BME280_humidity;BME280_pressure;Samples;Min_cycle;Max_cycle;Signal;HPM_P1;HPM_P2
2022/01/21 00:00:05;;;;;;;0.70;0.70;;;;;;;-4.96;89.47;97597.72;5013259;28;20522;-84
2022/01/21 00:02:36;;;;;;;0.60;0.60;;;;;;;-4.96;89.34;97621.38;5013105;28;20105;-87
2022/01/21 00:05:05;;;;;;;0.82;0.82;;;;;;;-4.91;89.44;97626.09;5029475;28;20108;-85
2022/01/21 00:07:32;;;;;;;0.60;0.60;;;;;;;-4.93;89.27;97618.41;5029408;28;20168;-85
2022/01/21 00:09:59;;;;;;;0.60;0.60;;;;;;;-4.94;89.43;97616.75;5029056;28;20502;-85
2022/01/21 00:12:30;;;;;;;0.60;0.60;;;;;;;-4.92;89.29;97616.56;5012720;28;20057;-86
2022/01/21 00:14:57;;;;;;;0.75;0.75;;;;;;;-4.95;89.05;97596.69;5012989;28;20046;-86
2022/01/21 00:17:25;;;;;;;0.63;0.63;;;;;;;-4.94;88.81;97622.00;5028909;28;20045;-85
2022/01/21 00:30:05;;;;;;;0.70;0.70;;;;;;;-4.93;88.70;97607.06;5029705;28;20099;-84
2022/01/21 00:31:06;;;;;;;0.60;0.60;;;;;;;-4.93;88.41;97609.69;5035668;28;20471;-86
2022/01/21 00:33:33;;;;;;;0.70;0.70;;;;;;;-4.94;88.39;97614.09;5035173;28;20531;-85
2022/01/21 00:36:00;;;;;;;0.60;0.60;;;;;;;-4.91;88.04;97603.25;5035141;28;20080;-87
2022/01/21 00:38:29;;;;;;;0.70;0.70;;;;;;;-4.91;88.00;97603.25;5028633;28;20521;-87
2022/01/21 00:41:00;;;;;;;0.60;0.60;;;;;;;-4.93;87.91;97605.22;5015174;28;20041;-86
2022/01/21 00:43:43;;;;;;;0.43;0.43;;;;;;;-4.90;87.81;97611.94;5033327;28;20053;-85
2022/01/21 00:46:13;;;;;;;0.60;0.60;;;;;;;-4.92;87.53;97620.00;5033755;28;20057;-86
2022/01/21 00:48:41;;;;;;;0.75;0.75;;;;;;;-4.91;87.71;97613.78;5033421;28;20068;-86
2022/01/21 00:51:10;;;;;;;0.80;0.80;;;;;;;-4.92;87.63;97609.50;5034625;28;20058;-85
2022/01/21 00:53:37;;;;;;;0.60;0.60;;;;;;;-4.94;87.51;97614.09;5034359;28;20064;-84
2022/01/21 00:56:05;;;;;;;0.70;0.70;;;;;;;-4.91;87.40;97612.94;5033891;28;20049;-84
2022/01/21 00:58:32;;;;;;;0.60;0.60;;;;;;;-4.92;87.15;97612.13;5034129;28;20140;-85
2022/01/21 01:00:59;;;;;;;0.60;0.60;;;;;;;-4.95;87.12;97609.84;5016432;28;20544;-86
2022/01/21 01:03:27;;;;;;;0.80;0.80;;;;;;;-4.98;87.01;97609.41;5033947;28;20049;-86
2022/01/21 01:05:54;;;;;;;0.70;0.70;;;;;;;-4.95;87.10;97609.03;5034149;28;20103;-84
2022/01/21 01:08:21;;;;;;;0.80;0.80;;;;;;;-4.94;86.90;97610.66;5034082;28;20099;-84
2022/01/21 01:11:14;;;;;;;0.90;0.90;;;;;;;-4.94;86.94;97610.66;5033913;28;20050;-84
2022/01/21 01:21:48;;;;;;;0.70;0.70;;;;;;;-4.89;86.50;97608.31;5034476;28;20077;-84
2022/01/21 01:30:00;;;;;;;0.90;0.90;;;;;;;-4.90;86.20;97604.06;5015339;28;20514;-85
2022/01/21 01:32:29;;;;;;;1.00;1.00;;;;;;;-4.90;86.32;97606.69;5015063;28;20077;-83
2022/01/21 01:34:57;;;;;;;0.98;0.98;;;;;;;-4.90;86.38;97602.22;5014665;28;20463;-86
2022/01/21 01:37:47;;;;;;;0.70;0.70;;;;;;;-4.90;86.09;97614.59;5031278;28;20061;-85
2022/01/21 01:40:24;;;;;;;0.68;0.68;;;;;;;-4.92;85.83;97608.69;5031728;28;20136;-86
2022/01/21 01:51:11;;;;;;;0.70;0.70;;;;;;;-4.93;86.30;97593.91;5031242;28;20457;-85
2022/01/21 01:54:04;;;;;;;0.80;0.80;;;;;;;-4.90;86.55;97596.16;5031064;28;20057;-83
2022/01/21 01:56:36;;;;;;;0.80;0.80;;;;;;;-4.92;86.20;97598.97;5030559;28;20195;-85
2022/01/21 01:59:04;;;;;;;0.70;0.70;;;;;;;-4.94;86.44;97585.16;4998190;28;20603;-86
2022/01/21 02:01:31;;;;;;;0.70;0.70;;;;;;;-4.90;86.52;97586.44;5030992;28;20045;-85
2022/01/21 02:03:59;;;;;;;0.82;0.82;;;;;;;-4.89;86.41;97588.06;5032219;28;20065;-85
2022/01/21 02:06:26;;;;;;;0.60;0.60;;;;;;;-4.85;86.56;97584.09;5033015;28;20045;-85
2022/01/21 02:08:53;;;;;;;0.68;0.68;;;;;;;-4.87;86.43;97586.06;5033409;28;20049;-85
2022/01/21 02:11:21;;;;;;;0.60;0.60;;;;;;;-4.91;86.51;97590.09;5031675;28;20049;-84
2022/01/21 02:13:55;;;;;;;0.75;0.75;;;;;;;-4.94;86.59;97590.44;5032766;28;20095;-86
2022/01/21 02:21:43;;;;;;;0.75;0.75;;;;;;;-4.91;86.47;97594.50;5037446;28;20053;-86
2022/01/21 02:24:24;;;;;;;0.65;0.65;;;;;;;-4.95;86.43;97591.44;5033028;28;20053;-85
2022/01/21 02:26:53;;;;;;;0.73;0.73;;;;;;;-4.92;86.17;97598.16;5033048;28;20079;-85
2022/01/21 02:29:29;;;;;;;0.70;0.70;;;;;;;-4.93;86.29;97592.06;5015499;28;20054;-86
2022/01/21 02:31:59;;;;;;;0.75;0.75;;;;;;;-4.92;86.36;97598.16;5031885;28;20092;-85
2022/01/21 02:34:27;;;;;;;0.60;0.60;;;;;;;-4.94;86.10;97585.16;5031469;28;20527;-84
2022/01/21 02:36:54;;;;;;;0.65;0.65;;;;;;;-4.96;86.12;97602.97;5032594;28;20135;-85
2022/01/21 02:39:22;;;;;;;0.70;0.70;;;;;;;-4.97;86.23;97584.72;5031310;28;20057;-85
2022/01/21 02:41:50;;;;;;;0.52;0.52;;;;;;;-5.01;85.91;97585.09;5031269;28;20056;-85
2022/01/21 02:44:20;;;;;;;0.60;0.60;;;;;;;-5.05;86.03;97578.53;5031540;28;20045;-83
2022/01/21 02:46:55;;;;;;;0.70;0.70;;;;;;;-5.02;86.28;97572.09;5014924;28;20047;-84
2022/01/21 02:49:23;;;;;;;;;;;;;;;-5.00;85.89;97564.84;5031598;28;20052;-82
2022/01/21 02:51:56;;;;;;;0.60;0.60;;;;;;;-5.06;85.78;97569.03;5031034;28;19928;-83
2022/01/21 02:54:24;;;;;;;0.65;0.65;;;;;;;-5.06;85.67;97555.88;5031279;28;20431;-84
2022/01/21 02:56:52;;;;;;;0.60;0.60;;;;;;;-5.10;85.72;97573.00;5030172;28;20054;-84
2022/01/21 02:59:20;;;;;;;0.70;0.70;;;;;;;-5.15;85.76;97562.19;5030804;28;20054;-83
2022/01/21 03:01:49;;;;;;;0.68;0.68;;;;;;;-5.15;85.79;97561.38;5030807;28;20045;-83
2022/01/21 03:05:04;;;;;;;0.70;0.70;;;;;;;-5.12;86.02;97559.19;5031007;28;20443;-87
2022/01/21 03:07:07;;;;;;;0.60;0.60;;;;;;;-5.11;86.09;97562.69;5030851;28;20057;-85
2022/01/21 03:09:35;;;;;;;0.70;0.70;;;;;;;-5.11;86.22;97567.94;5030805;28;20065;-85
2022/01/21 03:12:02;;;;;;;0.80;0.80;;;;;;;-5.10;85.93;97559.03;5033035;28;20065;-88
2022/01/21 03:14:29;;;;;;;0.70;0.70;;;;;;;-5.14;86.01;97542.81;5031335;28;20050;-83
2022/01/21 03:16:57;;;;;;;0.70;0.70;;;;;;;-5.14;85.89;97542.81;5031327;28;20500;-86
2022/01/21 03:19:24;;;;;;;0.80;0.80;;;;;;;-5.14;85.99;97547.22;5032666;28;20653;-89
2022/01/21 03:21:54;;;;;;;0.70;0.70;;;;;;;-5.15;85.71;97542.97;5031459;28;20049;-85
2022/01/21 03:24:22;;;;;;;0.90;0.90;;;;;;;-5.18;85.79;97552.03;5031354;28;20053;-82
2022/01/21 03:26:49;;;;;;;0.70;0.70;;;;;;;-5.20;85.83;97538.25;5031817;28;20119;-84
2022/01/21 03:29:19;;;;;;;0.65;0.65;;;;;;;-5.18;85.81;97540.72;5031361;28;20045;-82
2022/01/21 03:31:46;;;;;;;0.88;0.88;;;;;;;-5.20;85.87;97534.81;5029453;28;20415;-83
2022/01/21 03:34:14;;;;;;;0.50;0.50;;;;;;;-5.19;85.84;97542.53;5012941;28;20049;-83
2022/01/21 03:36:42;;;;;;;0.55;0.55;;;;;;;-5.23;85.81;97534.16;5029921;28;20133;-85
2022/01/21 03:39:10;;;;;;;0.80;0.80;;;;;;;-5.24;85.83;97543.06;5006487;28;20085;-83
2022/01/21 03:41:39;;;;;;;0.90;0.90;;;;;;;-5.23;85.88;97533.34;5030222;28;20333;-86
2022/01/21 03:44:08;;;;;;;0.70;0.70;;;;;;;-5.23;85.96;97534.16;5029678;28;20409;-84
2022/01/21 03:46:35;;;;;;;0.75;0.75;;;;;;;-5.18;86.06;97538.09;5029350;28;20393;-83
2022/01/21 03:49:05;;;;;;;0.70;0.70;;;;;;;-5.16;85.89;97529.00;4680253;28;10000130;-83
2022/01/21 03:51:34;;;;;;;0.70;0.70;;;;;;;-5.13;85.55;97525.19;5026139;28;20052;-83
2022/01/21 03:54:04;;;;;;;0.70;0.70;;;;;;;-5.19;85.54;97539.06;5024714;28;20049;-84
2022/01/21 03:56:32;;;;;;;0.60;0.60;;;;;;;-5.22;85.42;97542.88;5026569;28;20049;-84
2022/01/21 03:59:00;;;;;;;0.60;0.60;;;;;;;-5.22;85.60;97550.75;5027485;28;20149;-82
2022/01/21 04:01:29;;;;;;;0.70;0.70;;;;;;;-5.26;85.55;97560.84;5016963;28;20107;-84
2022/01/21 04:04:06;;;;;;;0.73;0.73;;;;;;;-5.21;85.72;97562.94;5023407;28;20413;-82
2022/01/21 04:06:36;;;;;;;0.63;0.63;;;;;;;-5.23;85.40;97562.28;5020542;28;20580;-81
2022/01/21 04:09:04;;;;;;;0.80;0.80;;;;;;;-5.25;85.55;97561.66;5014059;28;20128;-83
2022/01/21 04:11:34;;;;;;;0.82;0.82;;;;;;;-5.26;85.58;97563.47;4997932;28;20263;-83
2022/01/21 04:14:01;;;;;;;0.70;0.70;;;;;;;-5.27;85.75;97559.19;5015589;28;20054;-81
2022/01/21 04:16:29;;;;;;;0.50;0.50;;;;;;;-5.27;85.55;97545.22;4997506;28;20136;-82
2022/01/21 04:18:56;;;;;;;1.00;1.00;;;;;;;-5.28;85.81;97548.84;5015273;28;20112;-83
2022/01/21 04:21:24;;;;;;;0.70;0.70;;;;;;;-5.31;85.43;97560.56;5015044;28;20053;-83
2022/01/21 04:23:55;;;;;;;0.88;0.88;;;;;;;-5.30;85.54;97564.81;5030557;28;20432;-82
2022/01/21 04:26:30;;;;;;;0.80;0.80;;;;;;;-5.32;85.38;97551.00;5013386;28;20517;-83
2022/01/21 04:29:11;;;;;;;0.63;0.63;;;;;;;-5.36;85.56;97555.00;5014164;28;20057;-83
2022/01/21 04:31:46;;;;;;;0.82;0.82;;;;;;;-5.31;85.45;97560.56;5029988;28;20050;-83
2022/01/21 04:34:19;;;;;;;0.60;0.60;;;;;;;-5.33;85.34;97557.28;5014109;28;20046;-85
2022/01/21 04:36:53;;;;;;;0.60;0.60;;;;;;;-5.34;85.33;97553.03;5014988;28;20428;-83
2022/01/21 04:39:29;;;;;;;0.80;0.80;;;;;;;-5.33;85.36;97559.91;5014438;28;20061;-83
2022/01/21 04:47:35;;;;;;;0.70;0.70;;;;;;;-5.42;85.21;97547.81;5012957;28;20402;-83
2022/01/21 04:50:09;;;;;;;0.70;0.70;;;;;;;-5.39;85.43;97549.28;5013125;28;20520;-85
2022/01/21 04:52:42;;;;;;;0.80;0.80;;;;;;;-5.39;85.49;97549.28;4997910;28;20527;-85
2022/01/21 04:55:29;;;;;;;0.80;0.80;;;;;;;-5.38;85.19;97557.00;5014650;28;20053;-84
2022/01/21 04:57:57;;;;;;;0.80;0.80;;;;;;;-5.40;85.29;97545.03;5013130;28;20052;-84
2022/01/21 05:00:24;;;;;;;0.82;0.82;;;;;;;-5.39;85.16;97562.44;5028978;28;20136;-83
2022/01/21 05:02:51;;;;;;;0.77;0.77;;;;;;;-5.45;85.20;97541.09;5029995;28;20052;-83
2022/01/21 05:05:20;;;;;;;0.70;0.70;;;;;;;-5.42;85.22;97544.38;5013305;28;20045;-82
2022/01/21 05:07:48;;;;;;;0.70;0.70;;;;;;;-5.40;85.23;97545.84;5012670;28;20054;-83
2022/01/21 05:10:18;;;;;;;0.55;0.55;;;;;;;-5.43;85.08;97532.25;5028950;28;20133;-82
2022/01/21 05:12:46;;;;;;;0.70;0.70;;;;;;;-5.42;85.04;97547.81;5029504;28;20088;-83
2022/01/21 05:15:28;;;;;;;0.70;0.70;;;;;;;-5.40;84.74;97530.06;5012793;28;20457;-83
2022/01/21 05:17:55;;;;;;;0.52;0.52;;;;;;;-5.41;85.07;97530.25;5012404;28;20100;-83
2022/01/21 05:20:46;;;;;;;0.80;0.80;;;;;;;-5.45;84.71;97535.03;5014157;28;20056;-84
2022/01/21 05:23:39;;;;;;;0.70;0.70;;;;;;;-5.50;84.99;97525.06;5011496;28;20057;-83
2022/01/21 05:26:07;;;;;;;0.90;0.90;;;;;;;-5.54;84.98;97521.16;5029270;28;20141;-83
2022/01/21 05:28:35;;;;;;;0.75;0.75;;;;;;;-5.58;85.01;97511.19;5012087;28;20049;-84
2022/01/21 05:31:25;;;;;;;0.80;0.80;;;;;;;-5.51;84.92;97517.38;5013126;28;20112;-84
2022/01/21 05:34:19;;;;;;;0.88;0.88;;;;;;;-5.48;84.92;97509.13;5012740;28;20057;-82
2022/01/21 05:37:22;;;;;;;0.50;0.50;;;;;;;-5.50;84.95;97504.03;5001682;28;20058;-83
2022/01/21 05:40:17;;;;;;;0.70;0.70;;;;;;;-5.46;84.90;97510.56;5012896;28;20062;-82
2022/01/21 05:42:58;;;;;;;0.70;0.70;;;;;;;-5.51;84.73;97509.47;5012054;28;20397;-82
2022/01/21 05:48:30;;;;;;;0.80;0.80;;;;;;;-5.52;84.65;97503.41;5015964;28;20052;-83
2022/01/21 05:51:17;;;;;;;0.77;0.77;;;;;;;-5.58;84.56;97501.47;5014685;28;20042;-84
2022/01/21 05:54:10;;;;;;;0.77;0.77;;;;;;;-5.60;84.47;97495.56;5012170;28;20061;-83
2022/01/21 05:56:57;;;;;;;0.60;0.60;;;;;;;-5.62;84.74;97496.75;5028603;28;20525;-83
2022/01/21 05:59:30;;;;;;;0.60;0.60;;;;;;;-5.61;84.87;97487.88;5011821;28;20057;-83
2022/01/21 06:01:57;;;;;;;0.63;0.63;;;;;;;-5.59;84.99;97485.91;5012517;28;20046;-84
2022/01/21 06:04:25;;;;;;;2.03;0.68;;;;;;;-5.63;84.55;97460.97;4996716;28;20062;-83
2022/01/21 06:06:52;;;;;;;0.60;0.60;;;;;;;-5.70;84.50;97464.31;5012979;28;20128;-83
2022/01/21 06:09:19;;;;;;;0.63;0.63;;;;;;;-5.69;84.72;97471.19;5011753;28;20542;-83
2022/01/21 06:11:51;;;;;;;0.60;0.60;;;;;;;-5.70;84.43;97463.47;4994719;28;20084;-83
2022/01/21 06:14:18;;;;;;;0.70;0.70;;;;;;;-5.78;84.33;97464.38;5012801;28;20509;-83
2022/01/21 06:16:46;;;;;;;0.70;0.70;;;;;;;-5.80;84.46;97465.53;5011954;28;20092;-83
2022/01/21 06:19:14;;;;;;;0.90;0.90;;;;;;;-5.82;84.58;97460.47;5012308;28;20500;-81
2022/01/21 06:21:41;;;;;;;0.63;0.63;;;;;;;-5.87;84.61;97457.56;5012550;28;20050;-83
2022/01/21 06:24:08;;;;;;;0.70;0.70;;;;;;;-5.85;84.72;97466.06;5012282;28;20053;-84
2022/01/21 06:26:36;;;;;;;0.60;0.60;;;;;;;-5.82;84.69;97460.47;5012194;28;20054;-84
2022/01/21 06:29:04;;;;;;;0.70;0.70;;;;;;;-5.85;84.41;97466.06;5028284;28;20050;-83
2022/01/21 06:31:33;;;;;;;0.70;0.70;;;;;;;-5.90;84.67;97457.91;5013245;28;20548;-84
2022/01/21 06:34:00;;;;;;;0.60;0.60;;;;;;;-5.90;84.33;97460.53;5028075;28;20127;-84
2022/01/21 06:36:28;;;;;;;0.63;0.63;;;;;;;-5.92;84.18;97444.16;5010799;28;20452;-83
2022/01/21 06:38:55;;;;;;;0.73;0.73;;;;;;;-5.93;84.02;97447.75;5012874;28;20050;-83
2022/01/21 06:41:22;;;;;;;0.52;0.52;;;;;;;-5.94;84.22;97438.28;5012528;28;20061;-82
2022/01/21 06:43:54;;;;;;;0.70;0.70;;;;;;;-5.98;83.85;97439.63;5012596;28;20128;-82
2022/01/21 06:46:24;;;;;;;0.70;0.70;;;;;;;-6.01;83.88;97453.13;5012367;28;20457;-84
2022/01/21 06:48:51;;;;;;;0.60;0.60;;;;;;;-6.02;83.83;97451.50;5012376;28;20132;-84
2022/01/21 06:51:18;;;;;;;0.80;0.80;;;;;;;-5.97;84.17;97447.34;5012224;28;20104;-83
2022/01/21 06:53:45;;;;;;;0.70;0.70;;;;;;;-6.00;83.78;97452.97;5027427;28;20049;-83
2022/01/21 06:56:13;;;;;;;0.70;0.70;;;;;;;-6.02;83.48;97456.75;5013699;28;20038;-82
2022/01/21 06:58:42;;;;;;;0.80;0.80;;;;;;;-5.99;83.48;97461.66;5013188;28;20464;-84
2022/01/21 07:01:09;;;;;;;0.80;0.80;;;;;;;-5.96;83.76;97466.53;5011155;28;20069;-83
2022/01/21 07:03:37;;;;;;;0.90;0.90;;;;;;;-5.89;83.60;97459.56;5012210;28;20054;-84
2022/01/21 07:06:05;;;;;;;0.70;0.70;;;;;;;-5.89;83.25;97462.19;5014505;28;20477;-85
2022/01/21 07:08:34;;;;;;;0.80;0.80;;;;;;;-5.98;83.28;97463.28;5017268;28;20486;-83
2022/01/21 07:11:02;;;;;;;0.80;0.80;;;;;;;-5.96;83.42;97469.16;5024394;28;20050;-83
2022/01/21 07:13:29;;;;;;;0.80;0.80;;;;;;;-5.86;83.72;97466.28;5021715;28;20045;-83
2022/01/21 07:16:20;;;;;;;0.70;0.70;;;;;;;-6.03;83.37;97447.22;5026995;28;20389;-83
2022/01/21 07:18:50;;;;;;;0.82;0.82;;;;;;;-6.02;82.96;97465.44;5020610;28;20056;-82
2022/01/21 07:21:17;;;;;;;0.80;0.80;;;;;;;-6.13;83.11;97464.06;5022149;28;20053;-84
2022/01/21 07:23:50;;;;;;;0.80;0.80;;;;;;;-6.14;83.17;97472.91;5013759;28;20050;-84
2022/01/21 07:26:18;;;;;;;0.70;0.70;;;;;;;-6.15;83.39;97463.41;5027355;28;20073;-82
2022/01/21 07:28:45;;;;;;;0.77;0.77;;;;;;;-6.21;83.18;97450.16;5022656;28;20104;-82
2022/01/21 07:31:12;;;;;;;0.80;0.80;;;;;;;-6.15;83.58;97449.47;5027119;28;20049;-82
2022/01/21 07:33:42;;;;;;;0.80;0.80;;;;;;;-6.17;83.33;97451.47;5038042;28;20122;-87
2022/01/21 07:36:10;;;;;;;0.80;0.80;;;;;;;-6.10;83.57;97452.38;4690413;28;10000068;-86
2022/01/21 07:38:41;;;;;;;0.68;0.68;;;;;;;-6.02;83.55;97452.31;5021169;28;20110;-83
2022/01/21 07:41:08;;;;;;;0.70;0.70;;;;;;;-5.97;83.29;97454.41;5015009;28;20057;-85
2022/01/21 07:43:43;;;;;;;0.80;0.80;;;;;;;-6.01;83.02;97461.81;5015936;28;20100;-82
2022/01/21 07:46:10;;;;;;;0.80;0.80;;;;;;;-6.03;82.71;97478.75;5029537;28;20088;-85
2022/01/21 07:48:38;;;;;;;0.80;0.80;;;;;;;-5.99;82.90;97493.16;5017926;28;20045;-84
2022/01/21 07:51:05;;;;;;;0.70;0.70;;;;;;;-6.04;82.62;97471.88;5026819;28;20397;-81
2022/01/21 07:53:35;;;;;;;0.70;0.70;;;;;;;-6.02;82.49;97480.41;5010707;28;20141;-85
2022/01/21 08:06:58;;;;;;;0.80;0.80;;;;;;;-4.96;78.75;97446.88;4739598;27;10002043;-86
2022/01/21 08:09:25;;;;;;;0.90;0.90;;;;;;;-5.00;79.20;97459.59;5064549;28;20047;-84
2022/01/21 08:11:54;;;;;;;0.88;0.88;;;;;;;-5.23;78.82;97455.25;5078120;28;20182;-83
2022/01/21 08:14:22;;;;;;;0.98;0.98;;;;;;;-5.36;78.75;97441.13;5073834;28;20048;-87
2022/01/21 08:16:51;;;;;;;0.80;0.80;;;;;;;-5.58;78.71;97441.03;5058032;28;20072;-87
2022/01/21 08:19:18;;;;;;;0.80;0.80;;;;;;;-5.58;78.96;97458.59;5073150;28;20052;-87
2022/01/21 08:21:46;;;;;;;0.65;0.65;;;;;;;-5.71;79.00;97452.16;5067881;28;20048;-87
2022/01/21 08:24:17;;;;;;;0.85;0.85;;;;;;;-5.84;79.02;97457.22;5071661;28;20671;-86
2022/01/21 08:26:44;;;;;;;0.85;0.85;;;;;;;-5.87;79.37;97457.56;5076519;28;20506;-86
2022/01/21 08:29:12;;;;;;;0.77;0.77;;;;;;;-5.97;79.38;97428.16;5073451;28;20062;-86
2022/01/21 08:31:39;;;;;;;0.60;0.60;;;;;;;-5.97;80.00;97449.97;5082698;28;20052;-82
2022/01/21 08:34:06;;;;;;;0.90;0.90;;;;;;;-5.98;79.92;97442.25;5077431;28;20102;-85
2022/01/21 08:36:33;;;;;;;0.90;0.90;;;;;;;-5.99;79.97;97445.88;5082921;28;20056;-85
2022/01/21 08:39:04;;;;;;;1.08;1.08;;;;;;;-6.01;80.06;97429.47;5092153;28;20049;-86
2022/01/21 08:41:34;;;;;;;0.68;0.68;;;;;;;-6.02;80.42;97417.34;5088459;28;20101;-85
2022/01/21 08:44:03;;;;;;;0.80;0.80;;;;;;;-5.93;80.35;97413.59;5087159;28;20537;-87
2022/01/21 08:46:31;;;;;;;0.80;0.80;;;;;;;-5.75;80.34;97419.34;5056962;28;20148;-84
2022/01/21 08:48:58;;;;;;;0.75;0.75;;;;;;;-5.73;79.93;97422.59;5077319;28;20048;-83
2022/01/21 08:51:38;;;;;;;0.80;0.80;;;;;;;-5.67;79.99;97415.84;5072763;28;20048;-85
2022/01/21 08:54:07;;;;;;;0.65;0.65;;;;;;;-5.75;79.75;97423.78;5076618;28;20048;-88
2022/01/21 08:56:34;;;;;;;0.90;0.90;;;;;;;-5.80;79.82;97416.44;5062444;28;20087;-84
2022/01/21 08:59:01;;;;;;;0.90;0.90;;;;;;;-5.76;80.15;97406.38;5057232;28;20130;-84
2022/01/21 09:01:28;;;;;;;0.80;0.80;;;;;;;-5.74;79.77;97410.47;5042787;28;20138;-85
2022/01/21 09:04:09;;;;;;;0.75;0.75;;;;;;;-5.64;80.09;97404.94;4985060;28;20063;-84
2022/01/21 09:06:36;;;;;;;0.75;0.75;;;;;;;-5.56;79.77;97406.69;4994637;28;20470;-84
2022/01/21 09:09:04;;;;;;;1.00;1.00;;;;;;;-5.49;79.81;97404.97;4986856;28;20050;-83
2022/01/21 09:11:31;;;;;;;0.80;0.80;;;;;;;-5.49;79.85;97397.06;4952812;28;20043;-85
2022/01/21 09:14:00;;;;;;;0.80;0.80;;;;;;;-5.39;79.89;97407.28;4969807;28;20050;-85
2022/01/21 09:16:27;;;;;;;0.77;0.77;;;;;;;-5.38;79.53;97409.75;4969373;28;20051;-85
2022/01/21 09:18:58;;;;;;;0.80;0.80;;;;;;;-5.36;79.27;97397.25;4978993;28;20049;-85
2022/01/21 09:21:36;;;;;;;0.90;0.90;;;;;;;-5.57;79.09;97400.59;4985486;28;20094;-86
2022/01/21 09:24:05;;;;;;;0.80;0.80;;;;;;;-5.54;79.49;97394.97;4987412;28;20109;-84
2022/01/21 09:26:33;;;;;;;0.90;0.90;;;;;;;-5.43;79.52;97393.69;4987015;28;20144;-86
2022/01/21 09:29:03;;;;;;;0.90;0.90;;;;;;;-5.52;79.27;97392.16;4967709;28;20058;-88
2022/01/21 09:31:31;;;;;;;0.98;0.98;;;;;;;-5.55;79.12;97392.53;4980540;28;20129;-86
2022/01/21 09:34:24;;;;;;;0.80;0.80;;;;;;;-5.55;79.37;97384.63;4990968;28;20050;-89
2022/01/21 09:36:58;;;;;;;0.73;0.73;;;;;;;-5.57;79.13;97384.00;4957855;28;20042;-90
2022/01/21 09:39:27;;;;;;;0.70;0.70;;;;;;;-5.59;79.01;97373.69;4970892;28;20094;-87
2022/01/21 09:42:01;;;;;;;0.90;0.90;;;;;;;-5.70;78.89;97379.38;5028443;28;20526;-85
2022/01/21 09:44:30;;;;;;;0.80;0.80;;;;;;;-5.71;79.14;97377.75;5048867;28;20545;-85
2022/01/21 09:46:59;;;;;;;0.70;0.70;;;;;;;-5.73;79.36;97366.59;5048363;28;20060;-86
2022/01/21 09:49:27;;;;;;;0.80;0.80;;;;;;;-5.68;79.55;97370.31;5040529;28;20045;-87
2022/01/21 09:51:59;;;;;;;0.90;0.90;;;;;;;-5.62;79.34;97374.06;5043727;28;20219;-86
2022/01/21 09:54:32;;;;;;;0.80;0.80;;;;;;;-5.64;79.37;97368.16;5047850;28;20139;-87
2022/01/21 09:57:01;;;;;;;0.90;0.90;;;;;;;-5.71;78.98;97367.25;5041383;28;20500;-85
2022/01/21 09:59:31;;;;;;;0.90;0.90;;;;;;;-5.72;79.24;97361.19;5034851;28;20049;-89
2022/01/21 10:02:05;;;;;;;0.90;0.90;;;;;;;-5.67;79.55;97355.38;5035748;28;20053;-86
2022/01/21 10:04:38;;;;;;;0.73;0.73;;;;;;;-5.73;78.96;97354.28;5029253;28;20564;-86
2022/01/21 10:07:06;;;;;;;0.80;0.80;;;;;;;-5.74;79.10;97365.78;5026690;28;20049;-87
2022/01/21 10:09:33;;;;;;;1.00;1.00;;;;;;;-5.72;79.25;97358.56;5032062;28;20542;-87
2022/01/21 10:12:02;;;;;;;0.88;0.88;;;;;;;-5.71;79.51;97360.16;5032328;28;20041;-86
2022/01/21 10:14:30;;;;;;;0.77;0.77;;;;;;;-5.71;79.35;97347.03;5047146;28;20045;-87
2022/01/21 10:16:59;;;;;;;0.60;0.60;;;;;;;-5.66;79.27;97351.75;5004579;28;20049;-87
2022/01/21 10:19:31;;;;;;;0.90;0.90;;;;;;;-5.78;79.65;97345.31;5040225;28;20071;-89
2022/01/21 10:22:13;;;;;;;0.80;0.80;;;;;;;-5.73;79.84;97349.00;5047512;28;20049;-87
2022/01/21 10:24:59;;;;;;;0.70;0.70;;;;;;;-5.66;79.82;97344.66;5041216;28;20075;-87
2022/01/21 10:27:51;;;;;;;0.85;0.85;;;;;;;-5.57;79.81;97344.56;5051632;28;20060;-89
2022/01/21 10:30:24;;;;;;;0.80;0.80;;;;;;;-5.56;79.63;97343.59;5044877;28;20352;-89
2022/01/21 10:32:52;;;;;;;0.70;0.70;;;;;;;-5.63;79.36;97340.84;5045405;28;20503;-88
2022/01/21 10:35:35;;;;;;;0.70;0.70;;;;;;;-5.76;79.62;97328.38;5026752;28;20072;-84
2022/01/21 10:38:27;;;;;;;0.65;0.65;;;;;;;-5.73;79.97;97338.50;5039063;28;20057;-85
2022/01/21 10:41:07;;;;;;;0.90;0.90;;;;;;;-5.76;79.85;97328.38;5003145;28;20045;-85
2022/01/21 10:43:36;;;;;;;0.90;0.90;;;;;;;-5.76;80.00;97332.81;5039207;28;20080;-86
2022/01/21 10:46:04;;;;;;;0.80;0.80;;;;;;;-5.72;80.01;97320.91;5039807;28;20578;-89
2022/01/21 10:48:52;;;;;;;0.80;0.80;;;;;;;-5.66;80.19;97314.94;5038415;28;20075;-89
2022/01/21 10:51:26;;;;;;;0.68;0.68;;;;;;;-5.59;79.94;97312.41;5036717;28;20073;-88
2022/01/21 10:53:55;;;;;;;1.00;1.00;;;;;;;-5.59;79.44;97313.22;5045181;28;20138;-87
2022/01/21 10:56:24;;;;;;;0.90;0.90;;;;;;;-5.60;78.99;97306.31;5011630;28;20080;-87
2022/01/21 10:58:53;;;;;;;0.90;0.90;;;;;;;-5.57;78.76;97318.28;5034097;28;20041;-89
2022/01/21 11:01:25;;;;;;;0.73;0.73;;;;;;;-5.57;78.74;97315.66;5019223;28;20419;-86
2022/01/21 11:04:12;;;;;;;1.00;1.00;;;;;;;-5.49;78.97;97307.69;5046129;28;20099;-89
2022/01/21 11:06:53;;;;;;;0.90;0.90;;;;;;;-5.49;78.61;97312.94;5057353;28;20053;-90
2022/01/21 11:09:39;;;;;;;0.90;0.90;;;;;;;-5.64;78.63;97307.69;5041615;28;20049;-90
2022/01/21 11:12:21;;;;;;;0.77;0.77;;;;;;;-5.59;78.89;97315.03;5043857;28;20451;-89
2022/01/21 11:15:00;;;;;;;0.80;0.80;;;;;;;-5.57;78.54;97310.41;5040250;28;20045;-88
2022/01/21 11:17:30;;;;;;;0.80;0.80;;;;;;;-5.63;78.71;97301.44;5040575;28;20405;-89
2022/01/21 11:20:18;;;;;;;0.80;0.80;;;;;;;-5.71;78.48;97299.72;5058333;28;20068;-90
2022/01/21 11:22:59;;;;;;;0.77;0.77;;;;;;;-5.61;78.96;97293.38;5037806;28;20045;-90
2022/01/21 11:25:43;;;;;;;0.80;0.80;;;;;;;-5.59;78.31;97297.47;5046790;28;20049;-90
2022/01/21 11:28:20;;;;;;;1.00;1.00;;;;;;;-5.66;78.57;97305.25;5058509;28;20053;-90
2022/01/21 11:30:49;;;;;;;1.00;1.00;;;;;;;-5.75;78.10;97302.91;5041304;28;20081;-90
2022/01/21 11:33:16;;;;;;;1.00;1.00;;;;;;;-5.81;78.22;97296.56;5038196;28;20582;-89
2022/01/21 11:35:48;;;;;;;0.82;0.82;;;;;;;-5.86;78.33;97306.00;5048942;28;20133;-89
2022/01/21 11:38:18;;;;;;;0.70;0.70;;;;;;;-5.92;78.48;97304.91;5054462;28;20057;-89
2022/01/21 11:41:00;;;;;;;0.70;0.70;;;;;;;-5.86;78.54;97301.56;5047728;28;20076;-87
2022/01/21 11:43:33;;;;;;;0.80;0.80;;;;;;;-5.97;78.64;97299.41;5012942;28;20041;-90
2022/01/21 11:46:18;;;;;;;0.80;0.80;;;;;;;-6.02;78.70;97297.34;5048344;28;20052;-89
2022/01/21 11:48:51;;;;;;;0.70;0.70;;;;;;;-5.99;78.85;97312.72;5046550;28;20060;-90
2022/01/21 11:51:33;;;;;;;0.70;0.70;;;;;;;-6.02;78.81;97309.66;5051195;28;20315;-89
2022/01/21 11:54:04;;;;;;;0.80;0.80;;;;;;;-6.07;79.02;97307.56;5043875;28;20040;-90
2022/01/21 11:56:49;;;;;;;0.80;0.80;;;;;;;-6.06;79.19;97305.75;5070412;28;20048;-89
2022/01/21 11:59:36;;;;;;;0.80;0.80;;;;;;;-6.07;79.27;97304.13;5068945;28;20053;-90
2022/01/21 12:02:13;;;;;;;0.80;0.80;;;;;;;-6.09;79.03;97304.31;5055245;28;20080;-88
2022/01/21 12:04:45;;;;;;;0.55;0.55;;;;;;;-6.09;79.08;97301.69;5063128;28;20052;-89
2022/01/21 12:07:33;;;;;;;0.70;0.70;;;;;;;-6.10;78.87;97302.69;5027674;28;20063;-88
2022/01/21 12:10:07;;;;;;;0.80;0.80;;;;;;;-6.18;78.77;97295.72;5050804;28;20053;-89
2022/01/21 12:15:25;;;;;;;0.80;0.80;;;;;;;-6.35;78.56;97283.72;5055858;28;20510;-88
2022/01/21 12:20:59;;;;;;;0.60;0.60;;;;;;;-6.44;78.79;97282.16;5045345;28;20049;-90
2022/01/21 12:23:29;;;;;;;0.70;0.70;;;;;;;-6.46;78.89;97281.53;5048360;28;20049;-92
2022/01/21 12:26:34;;;;;;;0.70;0.70;;;;;;;-6.55;78.99;97272.94;5049637;28;20055;-89
2022/01/21 12:29:01;;;;;;;0.70;0.70;;;;;;;-6.63;78.87;97271.19;5045434;28;20048;-90
2022/01/21 12:31:46;;;;;;;0.73;0.73;;;;;;;-6.67;79.29;97274.34;5034447;28;20124;-90
2022/01/21 12:34:27;;;;;;;0.90;0.90;;;;;;;-6.66;79.54;97268.09;5038349;28;20050;-89
2022/01/21 12:36:57;;;;;;;0.90;0.90;;;;;;;-6.63;79.61;97273.81;5045187;28;20113;-88
2022/01/21 12:39:44;;;;;;;0.60;0.60;;;;;;;-6.63;79.73;97265.94;5052777;28;20072;-90
2022/01/21 12:42:20;;;;;;;0.60;0.60;;;;;;;-6.68;79.75;97276.16;5046917;28;20050;-90
2022/01/21 12:45:14;;;;;;;0.70;0.70;;;;;;;-6.66;80.16;97275.97;5008126;28;20619;-89
2022/01/21 12:47:46;;;;;;;0.70;0.70;;;;;;;-6.64;80.06;97272.16;5046109;28;20052;-90
2022/01/21 12:50:49;;;;;;;0.82;0.82;;;;;;;-6.61;80.07;97274.47;5042513;28;20109;-87
2022/01/21 12:53:33;;;;;;;0.73;0.73;;;;;;;-6.56;80.24;97271.28;5007137;28;20041;-87
2022/01/21 12:56:04;;;;;;;0.70;0.70;;;;;;;-6.52;80.06;97269.13;5026929;28;20064;-88
2022/01/21 12:58:42;;;;;;;0.90;0.90;;;;;;;-6.57;80.07;97277.53;5038690;28;20049;-88